Flight Track Log - Related Links

Times and Time Zones

All times are in EST time to prevent confusion due to time zone crossing. See the DAL1774 flight status page for this flight to view local times or setup timezone preferences in your user account.

Time Position Orientation Groundspeed Altitude Reporting Facility
EST Latitude Longitude Course Direction KTS MPH feet Rate Location/Type
Thu 05:16:46 PM 33.6331 -84.3781 121° Southeast 442 509 2,800  Level Atlanta Center
Thu 05:17:46 PM 33.6353 -84.3058 88° East 315 362 5,200 2,100 Climbing Atlanta Center
Thu 05:18:46 PM 33.6333 -84.2158 91° East 264 304 7,000 2,150 Climbing Atlanta Center
Thu 05:19:46 PM 33.6294 -84.1236 93° East 289 333 9,500 1,900 Climbing Atlanta Center
Thu 05:20:46 PM 33.6128 -84.0239 101° East 304 350 10,800 1,300 Climbing Atlanta Center
Thu 05:21:46 PM 33.5939 -83.9242 103° East 324 373 12,100 1,350 Climbing Atlanta Center
Thu 05:22:00 PM 33.5623 -83.6912 121° Southeast  Level FlightAware Approximate
Thu 05:22:46 PM 33.5728 -83.7994 101° East 356 410 13,500  Level Atlanta Center
Thu 05:23:46 PM 33.5517 -83.6725 101° East 380 437 16,400 2,450 Climbing Atlanta Center
Thu 05:24:46 PM 33.5553 -83.5428 88° East 380 437 18,400 2,150 Climbing Atlanta Center
Thu 05:25:46 PM 33.5714 -83.4181 81° East 385 443 20,700 1,750 Climbing Atlanta Center
Thu 05:26:46 PM 33.5833 -83.2883 84° East 391 450 21,900 1,200 Climbing Atlanta Center
Thu 05:27:46 PM 33.5992 -83.1583 82° East 391 450 23,100 1,100 Climbing Atlanta Center
Thu 05:28:46 PM 33.6147 -83.0111 83° East 397 457 24,100 1,000 Climbing Atlanta Center
Thu 05:29:46 PM 33.6300 -82.8661 83° East 414 476 25,100 450 Climbing Atlanta Center
Thu 05:30:46 PM 33.6433 -82.7264 83° East 426 490 25,000 450 Descending Atlanta Center
Thu 05:31:46 PM 33.6603 -82.5839 82° East 421 484 26,000 957 Climbing Atlanta Center
Thu 05:33:54 PM 33.6950 -82.2786 82° East 463 533 28,000 984 Climbing Jacksonville Center
Thu 05:34:55 PM 33.7236 -82.1308 77° East 463 533 29,100 893 Climbing Jacksonville Center
Thu 05:35:55 PM 33.7956 -81.9878 59° Northeast 471 542 29,800 807 Climbing Jacksonville Center
Thu 05:36:54 PM 33.8819 -81.8294 57° Northeast 495 570 30,700 605 Climbing Jacksonville Center
Thu 05:37:54 PM 33.9581 -81.6858 57° Northeast 511 588 31,000 150 Climbing Jacksonville Center
Thu 05:38:54 PM 34.0356 -81.5344 58° Northeast 518 596 31,000  Level Jacksonville Center
Thu 05:39:54 PM 34.1153 -81.3850 57° Northeast 518 596 31,000  Level Jacksonville Center
Thu 05:40:54 PM 34.1908 -81.2381 58° Northeast 525 604 31,000  Level Jacksonville Center
Thu 05:41:54 PM 34.2639 -81.0911 59° Northeast 525 604 31,000 -248 Level Jacksonville Center
Thu 05:42:55 PM 34.3367 -80.9486 58° Northeast 509 586 30,500 -992 Descending Jacksonville Center
Thu 05:43:55 PM 34.4075 -80.8036 59° Northeast 503 579 29,000 -1,550 Descending Jacksonville Center
Thu 05:44:55 PM 34.4822 -80.6633 57° Northeast 494 568 27,400 -2,269 Descending Jacksonville Center
Thu 05:45:54 PM 34.5486 -80.5306 59° Northeast 479 551 24,500 -1,313 Descending Jacksonville Center
Thu 05:48:16 PM 34.6903 -80.2472 59° Northeast 447 514 23,000 -441 Descending Washington Center
Thu 05:49:18 PM 34.7514 -80.1267 58° Northeast 429 494 23,000  Level Washington Center
Thu 05:50:18 PM 34.8286 -80.0147 50° Northeast 424 488 23,000 -298 Level Washington Center
Thu 05:51:19 PM 34.9261 -79.9186 39° Northeast 435 501 22,400 -1,322 Descending Washington Center
Thu 05:52:16 PM 35.0189 -79.8272 39° Northeast 430 495 20,400 -2,308 Descending Washington Center
Thu 05:53:16 PM 35.1139 -79.7433 36° Northeast 424 488 17,900 -2,459 Descending Washington Center
Thu 05:54:18 PM 35.2150 -79.6494 37° Northeast 424 488 15,400 -2,372 Descending Washington Center
Thu 05:54:42 PM 35.2475 -79.6156 40° Northeast 415 478 14,500 -2,262 Descending Washington Center
Thu 05:55:19 PM 35.3014 -79.5672 36° Northeast 412 474 13,100 -2,164 Descending Washington Center
Thu 05:55:43 PM 35.3400 -79.5336 35° Northeast 377 434 12,300 -1,684 Descending Washington Center
Thu 05:56:16 PM 35.3811 -79.4922 39° Northeast 370 426 11,500 -800 Descending Washington Center
Thu 05:56:43 PM 35.4133 -79.4633 36° Northeast 322 371 11,500 -300 Level Washington Center
Thu 05:57:16 PM 35.4500 -79.4267 39° Northeast 327 376 11,200 -882 Descending Washington Center
Thu 05:57:51 PM 35.4883 -79.4006 29° Northeast 299 344 10,500 -1,355 Descending Washington Center
Thu 05:58:18 PM 35.5186 -79.3689 40° Northeast 296 341 9,800 -1,477 Descending Washington Center
Thu 05:58:56 PM 35.5494 -79.3142 55° Northeast 285 328 8,900 -1,424 Descending Washington Center
Thu 05:59:17 PM 35.5647 -79.2894 53° Northeast 283 326 8,400 -1,556 Descending Washington Center
Thu 05:59:50 PM 35.5892 -79.2469 55° Northeast 282 325 7,500 -1,525 Descending Washington Center
Thu 06:00:16 PM 35.6044 -79.2169 58° Northeast 278 320 6,900 -1,548 Descending Washington Center
Thu 06:00:52 PM 35.6314 -79.1594 60° Northeast 279 321 5,900 -1,400 Descending Washington Center
Thu 06:01:16 PM 35.6508 -79.1322 49° Northeast 271 312 5,500 -1,364 Descending Washington Center
Thu 06:01:58 PM 35.6731 -79.0872 59° Northeast 241 277 4,400 -1,377 Descending Washington Center
Thu 06:02:17 PM 35.6861 -79.0675 51° Northeast 245 282 4,100 -984 Descending Washington Center
Thu 06:02:59 PM 35.7061 -79.0300 57° Northeast 180 207 3,400 -900 Descending Washington Center
Thu 06:03:17 PM 35.7147 -79.0150 55° Northeast 209 241 3,200 -358 Descending Washington Center
Thu 06:04:06 PM 35.7303 -78.9847 58° Northeast 130 150 3,000 -197 Descending Washington Center
Thu 06:04:18 PM 35.7389 -78.9775 34° Northeast 165 190 3,000  Level Washington Center
Thu 06:05:13 PM 35.7567 -78.9425 58° Northeast 146 168 3,000 -98 Level Washington Center
Thu 06:06:20 PM 35.7931 -78.9056 39° Northeast 148 170 2,800 -492 Descending Washington Center
Thu 06:07:15 PM 35.8169 -78.8733 48° Northeast 147 169 2,000 -750 Descending Washington Center
Thu 06:08:28 PM 35.8450 -78.8361 47° Northeast 111 128 1,200 -661 Descending Washington Center
Thu 06:09:04 PM 35.8600 -78.8214 38° Northeast 111 128 800 -667 Descending Washington Center

Login

Don't have an account? Register now (free) for customized features, flight alerts, and more!